createdAt,value
2022-10-22T00:00:03.582Z,13.38
2022-10-22T00:01:03.595Z,13.38
2022-10-22T00:02:03.746Z,13.38
2022-10-22T00:03:03.863Z,13.38
2022-10-22T00:04:03.749Z,13.38
2022-10-22T00:05:03.751Z,13.38
2022-10-22T00:06:03.733Z,13.38
2022-10-22T00:07:03.815Z,13.38
2022-10-22T00:08:03.823Z,13.38
2022-10-22T00:09:03.915Z,13.38
2022-10-22T00:10:04.240Z,13.38
2022-10-22T00:11:04.227Z,13.44
2022-10-22T00:12:04.398Z,13.44
2022-10-22T00:13:04.380Z,13.44
2022-10-22T00:14:04.471Z,13.44
2022-10-22T00:15:04.511Z,13.44
2022-10-22T00:16:05.434Z,13.50
2022-10-22T00:17:04.224Z,13.50
2022-10-22T00:18:04.142Z,13.50
2022-10-22T00:19:04.169Z,13.50
2022-10-22T00:20:04.238Z,13.50
2022-10-22T00:21:04.226Z,13.50
2022-10-22T00:22:04.310Z,13.50
2022-10-22T00:23:04.470Z,13.50
2022-10-22T00:24:03.591Z,13.50
2022-10-22T00:25:03.908Z,13.50
2022-10-22T00:26:03.977Z,13.50
2022-10-22T00:27:03.983Z,13.50
2022-10-22T00:28:03.991Z,13.50
2022-10-22T00:29:04.078Z,13.50
2022-10-22T00:30:04.011Z,13.50
2022-10-22T00:31:04.066Z,13.50
2022-10-22T00:32:04.243Z,13.50
2022-10-22T00:33:04.243Z,13.50
2022-10-22T00:34:04.379Z,13.50
2022-10-22T00:35:03.505Z,13.50
2022-10-22T00:36:03.508Z,13.50
2022-10-22T00:37:03.540Z,13.50
2022-10-22T00:38:03.587Z,13.50
2022-10-22T00:39:03.503Z,13.50
2022-10-22T00:40:03.611Z,13.50
2022-10-22T00:41:03.583Z,13.50
2022-10-22T00:42:03.578Z,13.50
2022-10-22T00:43:03.662Z,13.50
2022-10-22T00:44:03.668Z,13.50
2022-10-22T00:45:03.759Z,13.56
2022-10-22T00:46:03.747Z,13.56
2022-10-22T00:47:03.746Z,13.56
2022-10-22T00:48:03.743Z,13.56
2022-10-22T00:49:03.823Z,13.56
2022-10-22T00:51:04.017Z,13.56
2022-10-22T00:52:03.993Z,13.56
2022-10-22T00:53:03.990Z,13.56
2022-10-22T00:54:04.069Z,13.56
2022-10-22T00:55:04.157Z,13.56
2022-10-22T00:56:04.231Z,13.56
2022-10-22T00:57:04.149Z,13.56
2022-10-22T00:58:04.151Z,13.56
2022-10-22T00:59:04.292Z,13.56
2022-10-22T01:00:04.223Z,13.56
2022-10-22T01:01:04.267Z,13.56
2022-10-22T01:02:04.230Z,13.56
2022-10-22T01:03:04.391Z,13.62
2022-10-22T01:04:04.388Z,13.56
2022-10-22T01:05:04.475Z,13.62
2022-10-22T01:06:04.385Z,13.62
2022-10-22T01:07:04.382Z,13.62
2022-10-22T01:08:04.484Z,13.62
2022-10-22T01:09:04.561Z,13.56
2022-10-22T01:10:04.491Z,13.62
2022-10-22T01:11:03.515Z,13.56
2022-10-22T01:12:03.593Z,13.62
2022-10-22T01:13:03.671Z,13.62
2022-10-22T01:14:03.678Z,13.62
2022-10-22T01:15:03.675Z,13.62
2022-10-22T01:16:03.583Z,13.62
2022-10-22T01:17:03.676Z,13.62
2022-10-22T01:18:03.671Z,13.62
2022-10-22T01:19:03.749Z,13.62
2022-10-22T01:20:03.902Z,13.62
2022-10-22T01:21:03.905Z,13.62
2022-10-22T01:22:03.989Z,13.62
2022-10-22T01:23:04.142Z,13.62
2022-10-22T01:24:04.142Z,13.62
2022-10-22T01:25:04.228Z,13.62
2022-10-22T01:26:04.239Z,13.62
2022-10-22T01:27:04.148Z,13.62
2022-10-22T01:28:04.300Z,13.62
2022-10-22T01:29:04.466Z,13.62
2022-10-22T01:30:04.378Z,13.62
2022-10-22T01:31:03.503Z,13.62
2022-10-22T01:32:03.509Z,13.62
2022-10-22T01:33:03.505Z,13.62
2022-10-22T01:34:03.536Z,13.69
2022-10-22T01:35:03.673Z,13.69
2022-10-22T01:36:03.665Z,13.69
2022-10-22T01:37:03.838Z,13.69
2022-10-22T01:38:03.834Z,13.69
2022-10-22T01:39:03.826Z,13.69
2022-10-22T01:40:03.934Z,13.69
2022-10-22T01:41:03.987Z,13.69
2022-10-22T01:42:04.064Z,13.69
2022-10-22T01:43:03.985Z,13.69
2022-10-22T01:44:04.065Z,13.69
2022-10-22T01:45:04.075Z,13.69
2022-10-22T01:46:03.982Z,13.69
2022-10-22T01:47:04.073Z,13.69
2022-10-22T01:48:04.235Z,13.69
2022-10-22T01:49:04.312Z,13.69
2022-10-22T01:50:04.306Z,13.69
2022-10-22T01:51:04.296Z,13.69
2022-10-22T01:52:04.546Z,13.69
2022-10-22T01:53:03.502Z,13.69
2022-10-22T01:54:03.501Z,13.75
2022-10-22T01:55:03.586Z,13.75
2022-10-22T01:56:03.676Z,13.75
2022-10-22T01:57:03.662Z,13.75
2022-10-22T01:58:03.831Z,13.75
2022-10-22T01:59:03.829Z,13.75
2022-10-22T02:00:03.835Z,13.75
2022-10-22T02:01:04.043Z,13.75
2022-10-22T02:02:03.910Z,13.75
2022-10-22T02:03:03.983Z,13.75
2022-10-22T02:04:04.948Z,13.75
2022-10-22T02:05:03.990Z,13.75
2022-10-22T02:06:04.147Z,13.75
2022-10-22T02:07:04.137Z,13.75
2022-10-22T02:08:04.221Z,13.75
2022-10-22T02:09:04.353Z,13.75
2022-10-22T02:10:04.143Z,13.81
2022-10-22T02:11:04.225Z,13.81
2022-10-22T02:13:04.221Z,13.81
2022-10-22T02:14:04.387Z,13.81
2022-10-22T02:15:04.375Z,13.81
2022-10-22T02:16:04.472Z,13.88
2022-10-22T02:17:03.498Z,13.88
2022-10-22T02:18:03.598Z,13.88
2022-10-22T02:19:03.629Z,13.88
2022-10-22T02:20:03.500Z,13.88
2022-10-22T02:21:03.565Z,13.88
2022-10-22T02:22:03.742Z,13.88
2022-10-22T02:23:03.678Z,13.88
2022-10-22T02:24:03.669Z,13.88
2022-10-22T02:25:03.821Z,13.88
2022-10-22T02:26:03.816Z,13.88
2022-10-22T02:27:03.828Z,13.94
2022-10-22T02:28:03.825Z,13.94
2022-10-22T02:29:03.932Z,13.94
2022-10-22T02:30:04.004Z,13.94
2022-10-22T02:31:03.911Z,13.94
2022-10-22T02:32:03.908Z,13.94
2022-10-22T02:33:03.993Z,13.94
2022-10-22T02:34:03.907Z,13.94
2022-10-22T02:35:04.302Z,13.94
2022-10-22T02:36:04.426Z,13.94
2022-10-22T02:37:04.410Z,14.00
2022-10-22T02:38:04.467Z,14.00
2022-10-22T02:39:04.512Z,14.00
2022-10-22T02:40:03.585Z,14.00
2022-10-22T02:41:03.504Z,14.00
2022-10-22T02:42:03.679Z,14.06
2022-10-22T02:43:03.672Z,14.06
2022-10-22T02:44:03.831Z,14.06
2022-10-22T02:45:03.827Z,14.06
2022-10-22T02:46:04.786Z,14.12
2022-10-22T02:47:03.991Z,14.12
2022-10-22T02:48:04.001Z,14.12
2022-10-22T02:49:03.916Z,14.12
2022-10-22T02:50:05.379Z,14.12
2022-10-22T02:51:04.055Z,14.12
2022-10-22T02:52:04.069Z,14.12
2022-10-22T02:53:04.149Z,14.12
2022-10-22T02:54:04.171Z,14.19
2022-10-22T02:55:04.142Z,14.19
2022-10-22T02:56:04.307Z,14.19
2022-10-22T02:57:04.392Z,14.25
2022-10-22T02:58:04.008Z,14.25
2022-10-22T02:59:04.069Z,14.25
2022-10-22T03:00:04.139Z,14.31
2022-10-22T03:01:04.309Z,14.31
2022-10-22T03:02:04.230Z,14.38
2022-10-22T03:03:04.302Z,14.38
2022-10-22T03:04:04.227Z,14.31
2022-10-22T03:05:04.401Z,14.38
2022-10-22T03:06:04.467Z,14.44
2022-10-22T03:07:04.464Z,14.44
2022-10-22T03:08:03.425Z,14.44
2022-10-22T03:09:03.642Z,14.44
2022-10-22T03:10:03.586Z,14.50
2022-10-22T03:11:03.746Z,14.50
2022-10-22T03:12:03.821Z,14.50
2022-10-22T03:13:03.749Z,14.50
2022-10-22T03:14:03.755Z,14.50
2022-10-22T03:15:03.664Z,14.50
2022-10-22T03:16:03.844Z,14.56
2022-10-22T03:17:03.828Z,14.56
2022-10-22T03:18:03.995Z,14.50
2022-10-22T03:19:03.989Z,14.50
2022-10-22T03:20:03.984Z,14.56
2022-10-22T03:21:03.492Z,14.56
2022-10-22T03:22:03.498Z,14.56
2022-10-22T03:23:03.500Z,14.56
2022-10-22T03:24:03.674Z,14.56
2022-10-22T03:25:03.669Z,14.56
2022-10-22T03:26:03.753Z,14.56
2022-10-22T03:27:03.756Z,14.56
2022-10-22T03:28:03.818Z,14.56
2022-10-22T03:29:04.327Z,14.56
2022-10-22T03:30:04.299Z,14.56
2022-10-22T03:31:04.461Z,14.56
2022-10-22T03:32:04.398Z,14.62
2022-10-22T03:33:03.524Z,14.62
2022-10-22T03:34:03.558Z,14.56
2022-10-22T03:35:03.503Z,14.62
2022-10-22T03:36:03.587Z,14.56
2022-10-22T03:37:03.684Z,14.56
2022-10-22T03:38:03.581Z,14.56
2022-10-22T03:39:03.699Z,14.56
2022-10-22T03:40:03.834Z,14.56
2022-10-22T03:41:03.750Z,14.56
2022-10-22T03:42:03.923Z,14.56
2022-10-22T03:43:03.819Z,14.56
2022-10-22T03:44:03.897Z,14.50
2022-10-22T03:45:03.987Z,14.50
2022-10-22T03:46:03.889Z,14.50
2022-10-22T03:47:03.984Z,14.50
2022-10-22T03:48:04.057Z,14.50
2022-10-22T03:49:04.159Z,14.50
2022-10-22T03:50:04.151Z,14.50
2022-10-22T03:51:04.061Z,14.50
2022-10-22T03:52:04.064Z,14.50
2022-10-22T03:53:04.146Z,14.50
2022-10-22T03:54:04.064Z,14.50
2022-10-22T03:55:04.141Z,14.50
2022-10-22T03:56:04.067Z,14.50
2022-10-22T03:57:04.149Z,14.44
2022-10-22T03:58:04.143Z,14.50
2022-10-22T03:59:04.136Z,14.50
2022-10-22T04:00:04.315Z,14.44
2022-10-22T04:01:04.523Z,14.50
2022-10-22T04:02:03.584Z,14.44
2022-10-22T04:03:03.600Z,14.44
2022-10-22T04:04:03.589Z,14.44
2022-10-22T04:05:03.743Z,14.44
2022-10-22T04:06:03.738Z,14.44
2022-10-22T04:07:03.736Z,14.44
2022-10-22T04:08:03.837Z,14.38
2022-10-22T04:09:03.981Z,14.38
2022-10-22T04:10:04.061Z,14.38
2022-10-22T04:11:03.993Z,14.38
2022-10-22T04:12:04.229Z,14.38
2022-10-22T04:13:04.148Z,14.38
2022-10-22T04:14:04.393Z,14.38
2022-10-22T04:15:04.474Z,14.38
2022-10-22T04:16:04.483Z,14.44
2022-10-22T04:17:03.598Z,14.38
2022-10-22T04:18:03.672Z,14.38
2022-10-22T04:19:03.592Z,14.38
2022-10-22T04:20:04.410Z,14.38
2022-10-22T04:21:04.565Z,14.38
2022-10-22T04:22:04.156Z,14.38
2022-10-22T04:23:04.141Z,14.38
2022-10-22T04:24:04.306Z,14.38
2022-10-22T04:25:04.422Z,14.38
2022-10-22T04:26:03.664Z,14.38
2022-10-22T04:27:03.583Z,14.38
2022-10-22T04:28:03.586Z,14.38
2022-10-22T04:29:03.750Z,14.38
2022-10-22T04:30:03.758Z,14.38
2022-10-22T04:31:03.826Z,14.38
2022-10-22T04:32:03.898Z,14.38
2022-10-22T04:33:04.060Z,14.38
2022-10-22T04:34:04.077Z,14.38
2022-10-22T04:35:04.072Z,14.44
2022-10-22T04:36:04.076Z,14.44
2022-10-22T04:37:04.065Z,14.44
2022-10-22T04:38:04.225Z,14.44
2022-10-22T04:39:04.222Z,14.44
2022-10-22T04:40:04.223Z,14.44
2022-10-22T04:41:04.395Z,14.44
2022-10-22T04:42:04.379Z,14.50
2022-10-22T04:43:03.509Z,14.50
2022-10-22T04:44:03.537Z,14.50
2022-10-22T04:45:03.505Z,14.50
2022-10-22T04:46:03.579Z,14.50
2022-10-22T04:47:03.595Z,14.50
2022-10-22T04:48:03.675Z,14.50
2022-10-22T04:49:03.748Z,14.56
2022-10-22T04:50:03.846Z,14.56
2022-10-22T04:51:03.831Z,14.56
2022-10-22T04:52:03.825Z,14.56
2022-10-22T04:53:03.747Z,14.56
2022-10-22T04:54:03.754Z,14.56
2022-10-22T04:55:03.818Z,14.56
2022-10-22T04:56:03.912Z,14.56
2022-10-22T04:57:04.012Z,14.56
2022-10-22T04:58:03.989Z,14.56
2022-10-22T04:59:04.085Z,14.56
2022-10-22T05:00:04.062Z,14.56
2022-10-22T05:01:04.196Z,14.56
2022-10-22T05:02:04.152Z,14.56
2022-10-22T05:03:04.261Z,14.56
2022-10-22T05:04:04.223Z,14.56
2022-10-22T05:05:04.230Z,14.56
2022-10-22T05:06:04.377Z,14.56
2022-10-22T05:07:04.299Z,14.56
2022-10-22T05:08:04.219Z,14.56
2022-10-22T05:09:04.468Z,14.56
2022-10-22T05:10:04.314Z,14.56
2022-10-22T05:11:04.386Z,14.62
2022-10-22T05:12:04.304Z,14.62
2022-10-22T05:13:04.430Z,14.62
2022-10-22T05:14:04.380Z,14.56
2022-10-22T05:15:04.489Z,14.62
2022-10-22T05:16:03.510Z,14.62
2022-10-22T05:17:03.501Z,14.62
2022-10-22T05:18:03.662Z,14.62
2022-10-22T05:19:03.589Z,14.62
2022-10-22T05:20:03.600Z,14.62
2022-10-22T05:21:03.588Z,14.62
2022-10-22T05:22:03.590Z,14.62
2022-10-22T05:23:03.746Z,14.62
2022-10-22T05:24:03.824Z,14.62
2022-10-22T05:25:03.749Z,14.62
2022-10-22T05:26:03.740Z,14.69
2022-10-22T05:27:03.820Z,14.62
2022-10-22T05:28:04.057Z,14.62
2022-10-22T05:29:04.000Z,14.62
2022-10-22T05:30:03.975Z,14.62
2022-10-22T05:31:04.072Z,14.62
2022-10-22T05:32:03.598Z,14.62
2022-10-22T05:33:03.671Z,14.62
2022-10-22T05:34:03.601Z,14.62
2022-10-22T05:35:03.665Z,14.62
2022-10-22T05:36:03.671Z,14.56
2022-10-22T05:37:03.673Z,14.56
2022-10-22T05:38:03.758Z,14.62
2022-10-22T05:39:03.745Z,14.62
2022-10-22T05:40:12.308Z,14.62
2022-10-22T05:41:03.834Z,14.56
2022-10-22T05:42:03.929Z,14.56
2022-10-22T05:43:03.901Z,14.56
2022-10-22T05:44:03.991Z,14.56
2022-10-22T05:45:03.899Z,14.56
2022-10-22T05:46:03.907Z,14.56
2022-10-22T05:47:03.993Z,14.56
2022-10-22T05:48:03.994Z,14.56
2022-10-22T05:49:03.977Z,14.56
2022-10-22T05:50:04.067Z,14.56
2022-10-22T05:51:04.159Z,14.56
2022-10-22T05:52:04.057Z,14.56
2022-10-22T05:53:04.141Z,14.56
2022-10-22T05:54:04.148Z,14.56
2022-10-22T05:55:04.155Z,14.56
2022-10-22T05:56:04.147Z,14.50
2022-10-22T05:57:04.164Z,14.50
2022-10-22T05:58:04.223Z,14.50
2022-10-22T05:59:04.314Z,14.50
2022-10-22T06:00:04.517Z,14.50
2022-10-22T06:01:04.466Z,14.50
2022-10-22T06:02:03.683Z,14.44
2022-10-22T06:03:03.572Z,14.44
2022-10-22T06:04:03.632Z,14.44
2022-10-22T06:05:03.668Z,14.44
2022-10-22T06:06:03.750Z,14.44
2022-10-22T06:07:03.746Z,14.38
2022-10-22T06:08:03.746Z,14.38
2022-10-22T06:09:03.863Z,14.38
2022-10-22T06:10:03.842Z,14.38
2022-10-22T06:11:03.819Z,14.38
2022-10-22T06:12:03.849Z,14.38
2022-10-22T06:13:03.820Z,14.38
2022-10-22T06:14:03.821Z,14.31
2022-10-22T06:15:03.751Z,14.31
2022-10-22T06:16:03.822Z,14.31
2022-10-22T06:17:04.060Z,14.31
2022-10-22T06:18:04.068Z,14.31
2022-10-22T06:19:03.997Z,14.31
2022-10-22T06:21:03.907Z,14.25
2022-10-22T06:22:03.994Z,14.25
2022-10-22T06:23:04.137Z,14.25
2022-10-22T06:24:04.074Z,14.19
2022-10-22T06:25:04.312Z,14.19
2022-10-22T06:26:04.226Z,14.19
2022-10-22T06:27:04.304Z,14.19
2022-10-22T06:28:04.383Z,14.12
2022-10-22T06:29:03.523Z,14.12
2022-10-22T06:30:03.601Z,14.12
2022-10-22T06:31:03.688Z,14.12
2022-10-22T06:32:03.596Z,14.12
2022-10-22T06:33:03.745Z,14.06
2022-10-22T06:34:03.827Z,14.06
2022-10-22T06:35:03.756Z,14.06
2022-10-22T06:36:05.308Z,14.06
2022-10-22T06:37:03.910Z,14.00
2022-10-22T06:38:03.920Z,14.00
2022-10-22T06:39:03.829Z,14.00
2022-10-22T06:40:03.901Z,14.00
2022-10-22T06:41:03.998Z,14.00
2022-10-22T06:42:03.985Z,13.94
2022-10-22T06:43:04.154Z,13.94
2022-10-22T06:44:04.236Z,13.94
2022-10-22T06:45:04.318Z,13.94
2022-10-22T06:46:04.391Z,13.94
2022-10-22T06:47:04.478Z,13.94
2022-10-22T06:48:04.469Z,13.94
2022-10-22T06:49:04.497Z,13.94
2022-10-22T06:50:03.515Z,13.94
2022-10-22T06:51:03.677Z,13.94
2022-10-22T06:52:03.672Z,13.94
2022-10-22T06:53:03.591Z,13.94
2022-10-22T06:54:03.581Z,13.94
2022-10-22T06:55:03.505Z,13.94
2022-10-22T06:56:03.510Z,13.94
2022-10-22T06:57:03.594Z,13.94
2022-10-22T06:58:03.583Z,13.88
2022-10-22T06:59:03.670Z,13.88
2022-10-22T07:00:03.580Z,13.88
2022-10-22T07:01:03.654Z,13.88
2022-10-22T07:02:03.762Z,13.88
2022-10-22T07:03:03.661Z,13.81
2022-10-22T07:04:03.688Z,13.81
2022-10-22T07:05:03.580Z,13.81
2022-10-22T07:06:03.684Z,13.81
2022-10-22T07:07:03.581Z,13.81
2022-10-22T07:08:03.511Z,13.81
2022-10-22T07:09:03.654Z,13.88
2022-10-22T07:10:03.495Z,13.81
2022-10-22T07:11:03.585Z,13.81
2022-10-22T07:12:03.744Z,13.81
2022-10-22T07:13:03.747Z,13.81
2022-10-22T07:14:04.398Z,13.81
2022-10-22T07:15:04.392Z,13.81
2022-10-22T07:16:04.395Z,13.81
2022-10-22T07:17:04.476Z,13.81
2022-10-22T07:18:04.381Z,13.81
2022-10-22T07:19:04.548Z,13.81
2022-10-22T07:20:03.507Z,13.88
2022-10-22T07:21:03.915Z,13.88
2022-10-22T07:22:03.914Z,13.88
2022-10-22T07:23:03.837Z,13.88
2022-10-22T07:24:03.832Z,13.88
2022-10-22T07:25:05.143Z,13.94
2022-10-22T07:26:03.842Z,13.94
2022-10-22T07:27:05.058Z,13.94
2022-10-22T07:28:03.829Z,13.94
2022-10-22T07:29:03.904Z,13.94
2022-10-22T07:30:03.901Z,13.94
2022-10-22T07:31:03.990Z,14.00
2022-10-22T07:32:04.149Z,14.00
2022-10-22T07:33:04.145Z,14.00
2022-10-22T07:34:04.137Z,14.00
2022-10-22T07:35:04.363Z,14.00
2022-10-22T07:36:04.310Z,14.00
2022-10-22T07:37:04.229Z,14.06
2022-10-22T07:38:04.308Z,14.06
2022-10-22T07:39:04.306Z,14.06
2022-10-22T07:40:04.490Z,14.06
2022-10-22T07:41:04.394Z,14.06
2022-10-22T07:42:04.475Z,14.06
2022-10-22T07:43:03.594Z,14.12
2022-10-22T07:44:03.579Z,14.12
2022-10-22T07:45:03.598Z,14.12
2022-10-22T07:46:03.583Z,14.12
2022-10-22T07:47:03.683Z,14.12
2022-10-22T07:48:03.753Z,14.12
2022-10-22T07:49:03.744Z,14.19
2022-10-22T07:50:03.824Z,14.19
2022-10-22T07:51:03.845Z,14.19
2022-10-22T07:52:03.830Z,14.19
2022-10-22T07:53:03.823Z,14.19
2022-10-22T07:54:03.994Z,14.25
2022-10-22T07:55:03.999Z,14.25
2022-10-22T07:56:04.073Z,14.25
2022-10-22T07:57:04.222Z,14.25
2022-10-22T07:58:04.317Z,14.25
2022-10-22T07:59:04.395Z,14.31
2022-10-22T08:00:04.385Z,14.31
2022-10-22T08:01:03.669Z,14.31
2022-10-22T08:02:03.608Z,14.31
2022-10-22T08:03:03.689Z,14.38
2022-10-22T08:04:03.746Z,14.38
2022-10-22T08:05:03.907Z,14.38
2022-10-22T08:06:03.831Z,14.38
2022-10-22T08:07:03.909Z,14.38
2022-10-22T08:08:03.982Z,14.38
2022-10-22T08:09:04.116Z,14.44
2022-10-22T08:10:03.990Z,14.44
2022-10-22T08:11:04.155Z,14.44
2022-10-22T08:12:03.503Z,14.44
2022-10-22T08:13:03.589Z,14.50
2022-10-22T08:14:03.661Z,14.50
2022-10-22T08:15:05.108Z,14.50
2022-10-22T08:16:04.242Z,14.50
2022-10-22T08:17:04.392Z,14.56
2022-10-22T08:18:03.515Z,14.56
2022-10-22T08:19:03.504Z,14.56
2022-10-22T08:20:03.677Z,14.56
2022-10-22T08:21:03.739Z,14.56
2022-10-22T08:22:03.676Z,14.62
2022-10-22T08:23:03.748Z,14.62
2022-10-22T08:24:03.815Z,14.62
2022-10-22T08:25:03.907Z,14.62
2022-10-22T08:26:03.908Z,14.62
2022-10-22T08:27:03.908Z,14.69
2022-10-22T08:28:04.066Z,14.69
2022-10-22T08:29:04.144Z,14.69
2022-10-22T08:30:04.075Z,14.75
2022-10-22T08:31:04.146Z,14.75
2022-10-22T08:32:04.226Z,14.75
2022-10-22T08:33:04.392Z,14.75
2022-10-22T08:34:04.470Z,14.75
2022-10-22T08:35:04.475Z,14.81
2022-10-22T08:36:03.504Z,14.81
2022-10-22T08:37:03.671Z,14.81
2022-10-22T08:38:03.686Z,14.88
2022-10-22T08:39:03.585Z,14.81
2022-10-22T08:40:03.850Z,14.88
2022-10-22T08:41:03.754Z,14.88
2022-10-22T08:42:03.830Z,14.88
2022-10-22T08:43:03.825Z,14.88
2022-10-22T08:44:03.903Z,14.88
2022-10-22T08:45:03.903Z,14.88
2022-10-22T08:46:03.988Z,14.88
2022-10-22T08:47:04.143Z,14.88
2022-10-22T08:48:04.237Z,14.88
2022-10-22T08:49:04.303Z,14.88
2022-10-22T08:50:04.227Z,14.88
2022-10-22T08:51:04.311Z,14.94
2022-10-22T08:52:04.232Z,14.94
2022-10-22T08:53:04.399Z,14.94
2022-10-22T08:54:04.334Z,14.94
2022-10-22T08:55:04.393Z,15.00
2022-10-22T08:56:04.388Z,15.00
2022-10-22T08:57:04.302Z,15.00
2022-10-22T08:58:04.300Z,15.00
2022-10-22T08:59:04.385Z,15.06
2022-10-22T09:00:04.382Z,15.06
2022-10-22T09:01:03.563Z,15.06
2022-10-22T09:02:03.677Z,15.06
2022-10-22T09:03:03.662Z,15.12
2022-10-22T09:04:03.829Z,15.12
2022-10-22T09:05:03.819Z,15.12
2022-10-22T09:06:03.909Z,15.12
2022-10-22T09:07:04.006Z,15.19
2022-10-22T09:08:04.003Z,15.19
2022-10-22T09:09:04.038Z,15.19
2022-10-22T09:10:03.989Z,15.25
2022-10-22T09:11:04.285Z,15.25
2022-10-22T09:12:04.152Z,15.25
2022-10-22T09:13:04.228Z,15.31
2022-10-22T09:14:04.417Z,15.31
2022-10-22T09:15:04.387Z,15.38
2022-10-22T09:16:04.304Z,15.38
2022-10-22T09:17:04.467Z,15.44
2022-10-22T09:18:03.421Z,15.44
2022-10-22T09:19:03.606Z,15.50
2022-10-22T09:20:03.580Z,15.50
2022-10-22T09:21:03.670Z,15.56
2022-10-22T09:22:03.672Z,15.56
2022-10-22T09:23:03.589Z,15.62
2022-10-22T09:24:03.673Z,15.62
2022-10-22T09:25:03.742Z,15.69
2022-10-22T09:26:03.741Z,15.75
2022-10-22T09:27:03.584Z,15.75
2022-10-22T09:28:03.587Z,15.75
2022-10-22T09:29:03.584Z,15.81
2022-10-22T09:30:03.585Z,15.81
2022-10-22T09:31:03.690Z,15.81
2022-10-22T09:32:03.590Z,15.88
2022-10-22T09:33:03.751Z,15.88
2022-10-22T09:34:03.912Z,15.88
2022-10-22T09:35:03.898Z,15.94
2022-10-22T09:36:03.917Z,15.94
2022-10-22T09:37:04.062Z,16.00
2022-10-22T09:38:04.149Z,16.00
2022-10-22T09:39:04.321Z,16.06
2022-10-22T09:40:04.382Z,16.06
2022-10-22T09:41:04.461Z,16.12
2022-10-22T09:42:04.548Z,16.12
2022-10-22T09:43:03.588Z,16.19
2022-10-22T09:44:03.667Z,16.19
2022-10-22T09:45:03.750Z,16.25
2022-10-22T09:46:03.736Z,16.25
2022-10-22T09:47:03.748Z,16.31
2022-10-22T09:48:03.836Z,16.31
2022-10-22T09:49:03.740Z,16.38
2022-10-22T09:50:03.937Z,16.38
2022-10-22T09:51:04.002Z,16.38
2022-10-22T09:52:03.909Z,16.44
2022-10-22T09:53:04.071Z,16.44
2022-10-22T09:54:04.229Z,16.50
2022-10-22T09:55:04.224Z,16.50
2022-10-22T09:56:04.329Z,16.50
2022-10-22T09:57:04.390Z,16.56
2022-10-22T09:58:03.507Z,16.56
2022-10-22T09:59:03.675Z,16.62
2022-10-22T10:00:03.685Z,16.62
2022-10-22T10:01:04.423Z,16.69
2022-10-22T10:02:08.451Z,16.69
2022-10-22T10:03:03.540Z,16.69
2022-10-22T10:04:05.679Z,16.75
2022-10-22T10:05:03.589Z,16.75
2022-10-22T10:06:05.117Z,16.75
2022-10-22T10:07:03.507Z,16.81
2022-10-22T10:08:03.590Z,16.81
2022-10-22T10:09:03.881Z,16.81
2022-10-22T10:10:03.900Z,16.94
2022-10-22T10:11:03.985Z,16.94
2022-10-22T10:12:04.094Z,16.94
2022-10-22T10:13:04.078Z,17.00
2022-10-22T10:14:04.080Z,17.00
2022-10-22T10:15:04.219Z,17.00
2022-10-22T10:16:04.377Z,17.06
2022-10-22T10:17:04.309Z,17.06
2022-10-22T10:18:04.383Z,17.06
2022-10-22T10:19:04.471Z,17.12
2022-10-22T10:20:03.960Z,17.12
2022-10-22T10:21:03.716Z,17.19
2022-10-22T10:22:03.600Z,17.19
2022-10-22T10:23:03.514Z,17.25
2022-10-22T10:24:03.584Z,17.25
2022-10-22T10:25:03.673Z,17.31
2022-10-22T10:26:03.750Z,17.31
2022-10-22T10:27:03.747Z,17.31
2022-10-22T10:28:03.673Z,17.38
2022-10-22T10:29:03.748Z,17.38
2022-10-22T10:30:03.829Z,17.38
2022-10-22T10:31:03.832Z,17.44
2022-10-22T10:32:03.985Z,17.44
2022-10-22T10:33:04.063Z,17.44
2022-10-22T10:34:04.143Z,17.50
2022-10-22T10:35:04.243Z,17.50
2022-10-22T10:36:04.228Z,17.50
2022-10-22T10:37:04.239Z,17.50
2022-10-22T10:38:04.380Z,17.56
2022-10-22T10:39:04.458Z,17.56
2022-10-22T10:40:03.597Z,17.62
2022-10-22T10:41:04.306Z,17.56
2022-10-22T10:42:04.457Z,17.62
2022-10-22T10:43:04.395Z,17.62
2022-10-22T10:44:04.466Z,17.62
2022-10-22T10:45:03.510Z,17.69
2022-10-22T10:46:03.586Z,17.69
2022-10-22T10:47:03.593Z,17.69
2022-10-22T10:48:03.671Z,17.69
2022-10-22T10:49:03.667Z,17.75
2022-10-22T10:50:03.659Z,17.75
2022-10-22T10:51:03.768Z,17.75
2022-10-22T10:52:03.662Z,17.75
2022-10-22T10:53:03.846Z,17.75
2022-10-22T10:54:03.666Z,17.75
2022-10-22T10:55:03.670Z,17.75
2022-10-22T10:56:03.662Z,17.75
2022-10-22T10:57:03.669Z,17.75
2022-10-22T10:58:03.658Z,17.81
2022-10-22T10:59:03.753Z,17.81
2022-10-22T11:00:03.659Z,17.81
2022-10-22T11:01:03.745Z,17.81
2022-10-22T11:02:03.907Z,17.88
2022-10-22T11:03:03.983Z,17.88
2022-10-22T11:04:03.993Z,17.88
2022-10-22T11:05:03.983Z,17.88
2022-10-22T11:06:04.072Z,17.88
2022-10-22T11:07:10.604Z,17.88
2022-10-22T11:08:03.996Z,17.94
2022-10-22T11:09:04.044Z,17.94
2022-10-22T11:10:04.157Z,17.94
2022-10-22T11:11:04.111Z,17.94
2022-10-22T11:12:04.088Z,17.94
2022-10-22T11:13:04.232Z,17.94
2022-10-22T11:14:04.146Z,17.94
2022-10-22T11:15:04.242Z,17.94
2022-10-22T11:16:04.141Z,17.94
2022-10-22T11:17:04.308Z,17.94
2022-10-22T11:18:04.395Z,17.94
2022-10-22T11:19:04.475Z,18.00
2022-10-22T11:20:04.488Z,18.00
2022-10-22T11:21:04.469Z,18.06
2022-10-22T11:22:04.383Z,18.06
2022-10-22T11:23:18.563Z,18.06
2022-10-22T11:24:03.525Z,18.12
2022-10-22T11:25:03.593Z,18.19
2022-10-22T11:26:03.665Z,18.19
2022-10-22T11:27:03.831Z,18.19
2022-10-22T11:28:07.992Z,18.25
2022-10-22T11:29:03.822Z,18.25
2022-10-22T11:30:03.902Z,18.25
2022-10-22T11:31:03.864Z,18.31
2022-10-22T11:32:03.926Z,18.31
2022-10-22T11:33:03.991Z,18.31
2022-10-22T11:34:05.077Z,18.31
2022-10-22T11:35:03.904Z,18.31
2022-10-22T11:36:04.059Z,18.38
2022-10-22T11:37:03.984Z,18.38
2022-10-22T11:38:04.158Z,18.38
2022-10-22T11:39:04.160Z,18.38
2022-10-22T11:40:04.159Z,18.38
2022-10-22T11:41:04.314Z,18.38
2022-10-22T11:42:04.389Z,18.38
2022-10-22T11:43:04.387Z,18.44
2022-10-22T11:44:04.467Z,18.38
2022-10-22T11:45:04.386Z,18.44
2022-10-22T11:46:04.463Z,18.44
2022-10-22T11:47:03.502Z,18.44
2022-10-22T11:48:03.677Z,18.44
2022-10-22T11:49:03.518Z,18.50
2022-10-22T11:50:03.678Z,18.50
2022-10-22T11:51:03.661Z,18.50
2022-10-22T11:52:04.917Z,18.50
2022-10-22T11:53:03.811Z,18.56
2022-10-22T11:54:03.762Z,18.56
2022-10-22T11:55:03.739Z,18.62
2022-10-22T11:56:03.747Z,18.62
2022-10-22T11:57:03.671Z,18.62
2022-10-22T11:58:03.760Z,18.62
2022-10-22T11:59:03.756Z,18.62
2022-10-22T12:00:03.743Z,18.62
2022-10-22T12:01:03.746Z,18.62
2022-10-22T12:02:03.671Z,18.62
2022-10-22T12:03:03.857Z,18.62
2022-10-22T12:04:03.941Z,18.62
2022-10-22T12:05:04.078Z,18.62
2022-10-22T12:06:03.910Z,18.56
2022-10-22T12:07:04.154Z,18.62
2022-10-22T12:08:04.066Z,18.56
2022-10-22T12:09:04.184Z,18.56
2022-10-22T12:10:04.304Z,18.56
2022-10-22T12:11:04.226Z,18.56
2022-10-22T12:12:04.393Z,18.56
2022-10-22T12:13:04.398Z,18.56
2022-10-22T12:14:04.400Z,18.56
2022-10-22T12:15:04.488Z,18.56
2022-10-22T12:16:03.591Z,18.50
2022-10-22T12:17:03.676Z,18.56
2022-10-22T12:18:03.753Z,18.56
2022-10-22T12:19:03.661Z,18.56
2022-10-22T12:20:03.835Z,18.62
2022-10-22T12:21:03.904Z,18.62
2022-10-22T12:22:03.992Z,18.62
2022-10-22T12:23:04.150Z,18.69
2022-10-22T12:24:04.155Z,18.69
2022-10-22T12:25:04.142Z,18.69
2022-10-22T12:26:04.300Z,18.69
2022-10-22T12:27:04.399Z,18.69
2022-10-22T12:28:04.398Z,18.69
2022-10-22T12:29:04.461Z,18.69
2022-10-22T12:30:03.505Z,18.75
2022-10-22T12:31:03.585Z,18.69
2022-10-22T12:32:03.680Z,18.75
2022-10-22T12:33:03.753Z,18.75
2022-10-22T12:34:03.670Z,18.75
2022-10-22T12:35:03.746Z,18.69
2022-10-22T12:36:03.819Z,18.75
2022-10-22T12:37:03.909Z,18.69
2022-10-22T12:38:04.062Z,18.69
2022-10-22T12:39:04.146Z,18.69
2022-10-22T12:40:04.144Z,18.69
2022-10-22T12:41:03.982Z,18.69
2022-10-22T12:42:04.159Z,18.69
2022-10-22T12:43:04.095Z,18.69
2022-10-22T12:44:03.991Z,18.69
2022-10-22T12:45:04.073Z,18.62
2022-10-22T12:46:04.160Z,18.62
2022-10-22T12:47:04.175Z,18.62
2022-10-22T12:48:04.148Z,18.62
2022-10-22T12:49:04.308Z,18.62
2022-10-22T12:50:04.312Z,18.62
2022-10-22T12:51:04.465Z,18.69
2022-10-22T12:52:03.587Z,18.62
2022-10-22T12:53:03.679Z,18.62
2022-10-22T12:54:03.663Z,18.62
2022-10-22T12:55:03.837Z,18.62